createdAt,value
2023-05-24T00:00:25.394Z,10.25
2023-05-24T00:01:25.378Z,10.19
2023-05-24T00:02:25.241Z,10.13
2023-05-24T00:03:25.362Z,10.17
2023-05-24T00:04:25.473Z,10.13
2023-05-24T00:05:25.151Z,10.09
2023-05-24T00:06:25.123Z,10.15
2023-05-24T00:07:25.137Z,10.15
2023-05-24T00:08:25.108Z,10.13
2023-05-24T00:09:25.114Z,10.12
2023-05-24T00:10:25.086Z,9.99
2023-05-24T00:11:25.091Z,10.04
2023-05-24T00:12:25.079Z,10.02
2023-05-24T00:13:25.054Z,10.07
2023-05-24T00:14:25.046Z,10.13
2023-05-24T00:15:25.040Z,10.07
2023-05-24T00:16:25.054Z,10.02
2023-05-24T00:17:25.024Z,10.09
2023-05-24T00:18:25.014Z,10.15
2023-05-24T00:19:25.058Z,10.19
2023-05-24T00:20:25.061Z,10.17
2023-05-24T00:21:24.989Z,10.10
2023-05-24T00:22:24.976Z,10.17
2023-05-24T00:23:24.963Z,10.16
2023-05-24T00:24:24.944Z,10.15
2023-05-24T00:25:24.938Z,10.12
2023-05-24T00:26:24.927Z,10.05
2023-05-24T00:27:24.919Z,9.97
2023-05-24T00:28:24.908Z,9.94
2023-05-24T00:29:24.920Z,9.99
2023-05-24T00:30:24.881Z,9.99
2023-05-24T00:31:24.982Z,9.98
2023-05-24T00:32:24.887Z,10.01
2023-05-24T00:33:24.853Z,9.94
2023-05-24T00:34:24.843Z,9.95
2023-05-24T00:35:24.859Z,10.01
2023-05-24T00:36:24.879Z,9.95
2023-05-24T00:37:24.900Z,9.98
2023-05-24T00:38:24.818Z,9.95
2023-05-24T00:39:24.796Z,9.97
2023-05-24T00:40:24.823Z,9.94
2023-05-24T00:41:24.780Z,9.91
2023-05-24T00:42:24.772Z,9.95
2023-05-24T00:43:24.757Z,9.95
2023-05-24T00:44:24.758Z,9.98
2023-05-24T00:45:24.804Z,9.94
2023-05-24T00:46:24.788Z,9.84
2023-05-24T00:47:24.740Z,9.79
2023-05-24T00:48:24.739Z,9.66
2023-05-24T00:49:24.702Z,9.72
2023-05-24T00:50:24.681Z,9.69
2023-05-24T00:51:24.724Z,9.76
2023-05-24T00:52:24.687Z,9.74
2023-05-24T00:53:24.655Z,9.76
2023-05-24T00:54:24.663Z,9.61
2023-05-24T00:55:24.634Z,9.58
2023-05-24T00:56:24.674Z,9.56
2023-05-24T00:57:24.662Z,9.61
2023-05-24T00:58:24.668Z,9.65
2023-05-24T00:59:24.623Z,9.72
2023-05-24T01:00:24.586Z,9.76
2023-05-24T01:01:24.588Z,9.83
2023-05-24T01:02:24.679Z,9.80
2023-05-24T01:03:24.699Z,9.79
2023-05-24T01:04:24.570Z,9.82
2023-05-24T01:05:24.593Z,9.91
2023-05-24T01:06:24.559Z,9.87
2023-05-24T01:07:24.571Z,9.95
2023-05-24T01:08:24.541Z,9.94
2023-05-24T01:09:24.502Z,9.87
2023-05-24T01:10:24.601Z,9.83
2023-05-24T01:11:24.502Z,9.91
2023-05-24T01:12:24.489Z,9.89
2023-05-24T01:13:24.453Z,9.84
2023-05-24T01:14:24.460Z,9.87
2023-05-24T01:15:24.474Z,9.79
2023-05-24T01:16:24.506Z,9.83
2023-05-24T01:17:24.514Z,9.80
2023-05-24T01:18:24.408Z,9.84
2023-05-24T01:19:24.422Z,9.95
2023-05-24T01:20:24.458Z,9.82
2023-05-24T01:21:24.430Z,9.83
2023-05-24T01:22:24.410Z,9.80
2023-05-24T01:23:24.400Z,9.92
2023-05-24T01:24:24.456Z,9.87
2023-05-24T01:25:24.487Z,9.98
2023-05-24T01:26:24.324Z,9.97
2023-05-24T01:27:24.359Z,9.97
2023-05-24T01:28:24.375Z,10.02
2023-05-24T01:29:24.354Z,9.95
2023-05-24T01:30:24.315Z,9.86
2023-05-24T01:31:24.347Z,9.92
2023-05-24T01:32:24.329Z,9.89
2023-05-24T01:33:24.286Z,9.91
2023-05-24T01:34:24.241Z,9.92
2023-05-24T01:35:24.281Z,9.86
2023-05-24T01:36:24.264Z,9.92
2023-05-24T01:37:24.300Z,9.91
2023-05-24T01:38:24.260Z,9.95
2023-05-24T01:39:24.336Z,9.99
2023-05-24T01:40:24.201Z,9.95
2023-05-24T01:41:24.198Z,9.98
2023-05-24T01:42:24.160Z,9.95
2023-05-24T01:43:24.198Z,9.95
2023-05-24T01:44:24.145Z,9.95
2023-05-24T01:45:24.224Z,9.95
2023-05-24T01:46:24.169Z,9.99
2023-05-24T01:47:24.176Z,10.01
2023-05-24T01:48:24.101Z,9.91
2023-05-24T01:49:24.102Z,9.89
2023-05-24T01:50:25.848Z,9.86
2023-05-24T01:51:24.122Z,9.87
2023-05-24T01:52:24.192Z,9.91
2023-05-24T01:53:24.062Z,9.91
2023-05-24T01:54:24.062Z,9.84
2023-05-24T01:55:24.058Z,9.72
2023-05-24T01:56:24.031Z,9.69
2023-05-24T01:57:24.040Z,9.73
2023-05-24T01:58:24.068Z,9.73
2023-05-24T01:59:23.992Z,9.79
2023-05-24T02:00:24.018Z,9.79
2023-05-24T02:01:24.023Z,9.79
2023-05-24T02:02:24.147Z,9.82
2023-05-24T02:03:24.039Z,9.80
2023-05-24T02:04:23.969Z,9.79
2023-05-24T02:05:24.166Z,9.82
2023-05-24T02:06:23.949Z,9.91
2023-05-24T02:07:23.950Z,9.89
2023-05-24T02:08:23.911Z,9.92
2023-05-24T02:09:23.898Z,9.86
2023-05-24T02:10:23.932Z,9.82
2023-05-24T02:11:23.928Z,9.79
2023-05-24T02:12:23.853Z,9.82
2023-05-24T02:13:23.871Z,9.77
2023-05-24T02:14:23.858Z,9.77
2023-05-24T02:15:23.841Z,9.74
2023-05-24T02:16:23.898Z,9.74
2023-05-24T02:17:23.862Z,9.73
2023-05-24T02:18:23.831Z,9.74
2023-05-24T02:19:23.827Z,9.69
2023-05-24T02:20:23.800Z,9.73
2023-05-24T02:21:23.764Z,9.68
2023-05-24T02:22:23.835Z,9.76
2023-05-24T02:23:23.764Z,9.62
2023-05-24T02:24:23.873Z,9.72
2023-05-24T02:25:23.751Z,9.77
2023-05-24T02:26:23.813Z,9.80
2023-05-24T02:27:24.047Z,9.80
2023-05-24T02:28:23.743Z,9.77
2023-05-24T02:29:23.746Z,9.69
2023-05-24T02:30:23.792Z,9.79
2023-05-24T02:31:23.764Z,9.77
2023-05-24T02:32:23.693Z,9.73
2023-05-24T02:33:23.670Z,9.62
2023-05-24T02:34:23.675Z,9.66
2023-05-24T02:35:23.665Z,9.61
2023-05-24T02:36:23.697Z,9.66
2023-05-24T02:37:23.650Z,9.59
2023-05-24T02:38:23.643Z,9.55
2023-05-24T02:39:23.665Z,9.55
2023-05-24T02:40:23.562Z,9.56
2023-05-24T02:41:23.576Z,9.55
2023-05-24T02:42:23.631Z,9.56
2023-05-24T02:43:23.598Z,9.59
2023-05-24T02:44:23.593Z,9.59
2023-05-24T02:45:23.540Z,9.48
2023-05-24T02:46:23.564Z,9.51
2023-05-24T02:47:23.603Z,9.47
2023-05-24T02:48:23.540Z,9.47
2023-05-24T02:49:23.546Z,9.46
2023-05-24T02:50:23.508Z,9.46
2023-05-24T02:51:23.466Z,9.44
2023-05-24T02:52:23.451Z,9.39
2023-05-24T02:53:23.456Z,9.48
2023-05-24T02:54:23.462Z,9.32
2023-05-24T02:55:23.445Z,9.34
2023-05-24T02:56:23.459Z,9.34
2023-05-24T02:57:23.412Z,9.40
2023-05-24T02:58:23.410Z,9.36
2023-05-24T02:59:23.512Z,9.39
2023-05-24T03:00:23.388Z,9.37
2023-05-24T03:01:23.461Z,9.34
2023-05-24T03:02:23.502Z,9.21
2023-05-24T03:03:23.404Z,9.36
2023-05-24T03:04:23.365Z,9.22
2023-05-24T03:05:23.388Z,9.37
2023-05-24T03:06:23.383Z,9.32
2023-05-24T03:07:23.326Z,9.32
2023-05-24T03:08:23.284Z,9.31
2023-05-24T03:09:23.298Z,9.29
2023-05-24T03:10:23.292Z,9.36
2023-05-24T03:11:23.297Z,9.31
2023-05-24T03:12:23.303Z,9.29
2023-05-24T03:13:23.382Z,9.21
2023-05-24T03:14:23.273Z,9.26
2023-05-24T03:15:23.235Z,9.25
2023-05-24T03:16:23.246Z,9.36
2023-05-24T03:17:23.224Z,9.29
2023-05-24T03:18:23.207Z,9.34
2023-05-24T03:19:23.177Z,9.41
2023-05-24T03:20:23.189Z,9.28
2023-05-24T03:21:23.228Z,9.37
2023-05-24T03:22:23.397Z,9.40
2023-05-24T03:23:23.153Z,9.21
2023-05-24T03:24:23.136Z,9.31
2023-05-24T03:25:23.128Z,9.41
2023-05-24T03:26:23.122Z,9.36
2023-05-24T03:27:23.092Z,9.40
2023-05-24T03:28:23.130Z,9.39
2023-05-24T03:29:23.105Z,9.37
2023-05-24T03:30:23.082Z,9.40
2023-05-24T03:31:23.216Z,9.37
2023-05-24T03:32:23.148Z,9.44
2023-05-24T03:33:23.110Z,9.31
2023-05-24T03:34:23.040Z,9.34
2023-05-24T03:35:23.002Z,9.46
2023-05-24T03:36:23.074Z,9.40
2023-05-24T03:37:23.094Z,9.50
2023-05-24T03:38:22.994Z,9.58
2023-05-24T03:39:23.084Z,9.59
2023-05-24T03:40:22.989Z,9.58
2023-05-24T03:41:23.078Z,9.61
2023-05-24T03:42:22.928Z,9.61
2023-05-24T03:43:22.942Z,9.59
2023-05-24T03:44:23.034Z,9.72
2023-05-24T03:45:34.677Z,9.74
2023-05-24T03:46:23.069Z,9.74
2023-05-24T03:47:23.000Z,9.79
2023-05-24T03:48:22.925Z,9.84
2023-05-24T03:49:22.964Z,9.77
2023-05-24T03:50:22.919Z,9.80
2023-05-24T03:51:22.862Z,9.82
2023-05-24T03:52:23.044Z,9.97
2023-05-24T03:53:23.420Z,9.98
2023-05-24T03:54:22.822Z,9.87
2023-05-24T03:55:22.807Z,10.01
2023-05-24T03:56:22.844Z,9.92
2023-05-24T03:57:22.865Z,9.95
2023-05-24T03:58:22.802Z,9.98
2023-05-24T03:59:22.801Z,9.99
2023-05-24T04:00:22.793Z,9.97
2023-05-24T04:01:33.331Z,9.92
2023-05-24T04:02:22.831Z,9.94
2023-05-24T04:03:22.827Z,9.99
2023-05-24T04:04:22.898Z,10.01
2023-05-24T04:05:22.705Z,9.98
2023-05-24T04:06:22.706Z,9.98
2023-05-24T04:07:22.690Z,9.94
2023-05-24T04:08:22.665Z,9.97
2023-05-24T04:09:22.675Z,10.01
2023-05-24T04:10:22.621Z,9.95
2023-05-24T04:11:22.622Z,10.02
2023-05-24T04:12:22.654Z,9.98
2023-05-24T04:13:22.602Z,9.98
2023-05-24T04:14:22.585Z,9.91
2023-05-24T04:15:22.565Z,9.94
2023-05-24T04:16:22.644Z,9.72
2023-05-24T04:17:22.724Z,9.61
2023-05-24T04:18:22.729Z,9.58
2023-05-24T04:19:22.546Z,9.47
2023-05-24T04:20:22.607Z,9.39
2023-05-24T04:21:22.516Z,9.37
2023-05-24T04:22:24.306Z,9.37
2023-05-24T04:23:22.696Z,9.34
2023-05-24T04:24:22.489Z,9.44
2023-05-24T04:25:22.469Z,9.36
2023-05-24T04:26:22.458Z,9.32
2023-05-24T04:27:22.485Z,9.40
2023-05-24T04:28:22.442Z,9.50
2023-05-24T04:29:22.431Z,9.39
2023-05-24T04:30:22.422Z,9.44
2023-05-24T04:31:22.434Z,9.48
2023-05-24T04:32:22.443Z,9.51
2023-05-24T04:33:22.384Z,9.56
2023-05-24T04:34:22.433Z,9.54
2023-05-24T04:35:22.388Z,9.62
2023-05-24T04:36:22.358Z,9.61
2023-05-24T04:37:22.339Z,9.61
2023-05-24T04:38:22.332Z,9.59
2023-05-24T04:39:22.334Z,9.62
2023-05-24T04:40:22.320Z,9.58
2023-05-24T04:41:22.308Z,9.55
2023-05-24T04:42:22.298Z,9.61
2023-05-24T04:43:22.279Z,9.61
2023-05-24T04:44:22.283Z,9.76
2023-05-24T04:45:22.274Z,9.74
2023-05-24T04:46:22.335Z,9.79
2023-05-24T04:47:22.364Z,9.72
2023-05-24T04:48:22.299Z,9.84
2023-05-24T04:49:22.269Z,9.77
2023-05-24T04:50:22.252Z,9.80
2023-05-24T04:51:22.245Z,9.80
2023-05-24T04:52:22.248Z,9.84
2023-05-24T04:53:22.223Z,9.83
2023-05-24T04:54:22.220Z,9.79
2023-05-24T04:55:22.196Z,9.80
2023-05-24T04:56:22.225Z,9.77
2023-05-24T04:57:22.185Z,9.74
2023-05-24T04:58:22.164Z,9.74
2023-05-24T04:59:22.153Z,9.79
2023-05-24T05:00:22.139Z,9.62
2023-05-24T05:01:22.161Z,9.54
2023-05-24T05:02:22.136Z,9.68
2023-05-24T05:03:22.156Z,9.76
2023-05-24T05:04:22.090Z,9.77
2023-05-24T05:05:22.068Z,9.82
2023-05-24T05:06:22.177Z,9.87
2023-05-24T05:07:22.092Z,10.01
2023-05-24T05:08:22.045Z,10.09
2023-05-24T05:09:22.080Z,10.16
2023-05-24T05:10:23.875Z,10.07
2023-05-24T05:11:22.038Z,10.05
2023-05-24T05:12:22.038Z,10.17
2023-05-24T05:13:22.006Z,10.07
2023-05-24T05:14:22.020Z,10.16
2023-05-24T05:15:21.967Z,10.17
2023-05-24T05:16:22.077Z,10.12
2023-05-24T05:17:22.011Z,10.01
2023-05-24T05:18:21.977Z,10.07
2023-05-24T05:19:21.948Z,10.12
2023-05-24T05:20:21.996Z,10.02
2023-05-24T05:21:21.965Z,10.04
2023-05-24T05:22:21.918Z,10.01
2023-05-24T05:23:21.929Z,10.15
2023-05-24T05:24:21.884Z,10.15
2023-05-24T05:25:21.874Z,10.02
2023-05-24T05:26:21.877Z,10.02
2023-05-24T05:27:21.864Z,10.05
2023-05-24T05:28:21.880Z,10.12
2023-05-24T05:29:24.135Z,10.05
2023-05-24T05:30:21.817Z,10.05
2023-05-24T05:31:21.826Z,10.07
2023-05-24T05:32:21.862Z,10.12
2023-05-24T05:33:21.849Z,10.16
2023-05-24T05:34:21.797Z,10.13
2023-05-24T05:35:21.768Z,10.17
2023-05-24T05:36:21.776Z,10.19
2023-05-24T05:37:21.763Z,10.22
2023-05-24T05:38:21.760Z,10.26
2023-05-24T05:39:21.759Z,10.31
2023-05-24T05:40:21.718Z,10.40
2023-05-24T05:41:21.704Z,10.48
2023-05-24T05:42:21.718Z,10.59
2023-05-24T05:43:21.715Z,10.44
2023-05-24T05:44:21.692Z,10.38
2023-05-24T05:45:21.771Z,10.38
2023-05-24T05:46:21.725Z,10.57
2023-05-24T05:47:21.658Z,10.61
2023-05-24T05:48:21.669Z,10.75
2023-05-24T05:49:21.650Z,10.78
2023-05-24T05:50:21.621Z,10.67
2023-05-24T05:51:21.632Z,10.63
2023-05-24T05:52:21.628Z,10.68
2023-05-24T05:53:21.615Z,10.75
2023-05-24T05:54:21.569Z,10.87
2023-05-24T05:55:21.644Z,10.93
2023-05-24T05:56:21.575Z,11.07
2023-05-24T05:57:21.557Z,10.93
2023-05-24T05:58:21.581Z,10.86
2023-05-24T05:59:21.550Z,10.86
2023-05-24T06:00:21.509Z,10.76
2023-05-24T06:01:21.494Z,10.72
2023-05-24T06:02:21.553Z,10.63
2023-05-24T06:03:21.683Z,10.64
2023-05-24T06:04:21.512Z,10.78
2023-05-24T06:05:21.459Z,10.93
2023-05-24T06:06:21.447Z,11.04
2023-05-24T06:07:21.449Z,11.18
2023-05-24T06:08:21.432Z,10.96
2023-05-24T06:09:21.468Z,10.82
2023-05-24T06:10:21.434Z,10.86
2023-05-24T06:11:21.481Z,10.75
2023-05-24T06:12:21.416Z,10.82
2023-05-24T06:13:21.377Z,10.84
2023-05-24T06:14:21.374Z,10.89
2023-05-24T06:15:21.365Z,10.92
2023-05-24T06:16:21.461Z,10.97
2023-05-24T06:17:21.388Z,11.08
2023-05-24T06:18:21.337Z,11.12
2023-05-24T06:19:21.324Z,10.99
2023-05-24T06:20:21.341Z,10.97
2023-05-24T06:21:21.334Z,10.94
2023-05-24T06:22:21.293Z,11.00
2023-05-24T06:23:21.285Z,10.97
2023-05-24T06:24:21.358Z,11.12
2023-05-24T06:25:21.262Z,11.15
2023-05-24T06:26:21.305Z,11.37
2023-05-24T06:27:21.283Z,11.47
2023-05-24T06:28:21.267Z,11.55
2023-05-24T06:29:21.239Z,11.69
2023-05-24T06:30:21.278Z,11.75
2023-05-24T06:31:21.312Z,11.52
2023-05-24T06:32:21.297Z,11.62
2023-05-24T06:33:21.244Z,11.66
2023-05-24T06:34:21.558Z,11.66
2023-05-24T06:35:21.188Z,11.54
2023-05-24T06:36:21.199Z,11.48
2023-05-24T06:37:21.164Z,11.51
2023-05-24T06:38:21.164Z,11.69
2023-05-24T06:39:21.194Z,11.77
2023-05-24T06:40:21.173Z,11.65
2023-05-24T06:41:21.167Z,11.81
2023-05-24T06:42:21.156Z,11.88
2023-05-24T06:43:21.168Z,12.13
2023-05-24T06:44:22.863Z,12.24
2023-05-24T06:45:21.180Z,12.15
2023-05-24T06:46:21.129Z,12.27
2023-05-24T06:47:21.236Z,12.35
2023-05-24T06:48:21.133Z,12.57
2023-05-24T06:49:21.097Z,12.42
2023-05-24T06:50:21.064Z,12.31
2023-05-24T06:51:21.033Z,12.46
2023-05-24T06:52:21.240Z,12.67
2023-05-24T06:53:21.047Z,12.73
2023-05-24T06:54:21.037Z,12.85
2023-05-24T06:55:21.018Z,12.97
2023-05-24T06:56:21.053Z,13.04
2023-05-24T06:57:21.002Z,13.12
2023-05-24T06:58:20.970Z,13.09
2023-05-24T06:59:21.126Z,13.28
2023-05-24T07:00:20.969Z,13.19
2023-05-24T07:01:21.030Z,13.27
2023-05-24T07:02:21.025Z,13.22
2023-05-24T07:03:20.996Z,13.37
2023-05-24T07:04:20.998Z,13.37
2023-05-24T07:05:20.939Z,13.33
2023-05-24T07:06:20.922Z,13.03
2023-05-24T07:07:20.927Z,12.91
2023-05-24T07:08:20.935Z,12.83
2023-05-24T07:09:20.873Z,12.86
2023-05-24T07:10:20.896Z,12.93
2023-05-24T07:11:20.912Z,12.91
2023-05-24T07:12:20.862Z,12.87
2023-05-24T07:13:20.893Z,12.76
2023-05-24T07:14:20.884Z,12.57
2023-05-24T07:15:20.859Z,12.76
2023-05-24T07:16:20.874Z,12.79
2023-05-24T07:17:20.860Z,12.98
2023-05-24T07:18:20.820Z,12.85
2023-05-24T07:19:20.822Z,12.76
2023-05-24T07:20:20.860Z,12.86
2023-05-24T07:21:20.793Z,13.11
2023-05-24T07:22:20.818Z,13.30
2023-05-24T07:23:20.804Z,13.35
2023-05-24T07:24:20.771Z,13.33
2023-05-24T07:25:20.774Z,13.08
2023-05-24T07:26:20.967Z,13.16
2023-05-24T07:27:20.801Z,13.27
2023-05-24T07:28:20.753Z,13.44
2023-05-24T07:29:20.760Z,13.52
2023-05-24T07:30:31.577Z,13.68
2023-05-24T07:31:20.767Z,13.72
2023-05-24T07:32:20.766Z,13.89
2023-05-24T07:33:20.722Z,13.89
2023-05-24T07:34:20.729Z,13.90
2023-05-24T07:35:20.737Z,13.85
2023-05-24T07:36:20.688Z,13.44
2023-05-24T07:37:20.686Z,12.98
2023-05-24T07:38:20.687Z,12.72
2023-05-24T07:39:20.671Z,12.67
2023-05-24T07:40:20.654Z,12.57
2023-05-24T07:41:20.639Z,12.67
2023-05-24T07:42:20.644Z,12.65
2023-05-24T07:43:20.654Z,12.86
2023-05-24T07:44:20.657Z,13.04
2023-05-24T07:45:20.686Z,13.23
2023-05-24T07:46:20.731Z,13.42
2023-05-24T07:47:20.707Z,13.57
2023-05-24T07:48:20.574Z,13.72
2023-05-24T07:49:20.610Z,13.74
2023-05-24T07:50:20.552Z,13.90
2023-05-24T07:51:20.549Z,13.83
2023-05-24T07:52:20.583Z,13.70
2023-05-24T07:53:20.537Z,13.60
2023-05-24T07:54:20.544Z,13.60
2023-05-24T07:55:20.601Z,13.59
2023-05-24T07:56:20.532Z,13.47
2023-05-24T07:57:20.565Z,13.22
2023-05-24T07:58:20.546Z,13.19
2023-05-24T07:59:20.518Z,13.42
2023-05-24T08:00:20.502Z,13.13
2023-05-24T08:01:20.530Z,12.90
2023-05-24T08:02:20.553Z,12.73
2023-05-24T08:03:20.612Z,12.61
2023-05-24T08:04:20.466Z,12.67
2023-05-24T08:05:20.482Z,12.70
2023-05-24T08:06:20.571Z,12.42
2023-05-24T08:07:20.585Z,12.49
2023-05-24T08:08:20.679Z,12.67
2023-05-24T08:09:20.425Z,12.60
2023-05-24T08:10:20.400Z,12.75
2023-05-24T08:11:20.410Z,12.72
2023-05-24T08:12:20.453Z,12.73
2023-05-24T08:13:20.399Z,12.67
2023-05-24T08:14:20.404Z,12.64
2023-05-24T08:15:20.381Z,12.78
2023-05-24T08:16:20.446Z,12.93
2023-05-24T08:17:20.375Z,13.18
2023-05-24T08:18:20.362Z,13.42
2023-05-24T08:19:20.378Z,13.65
2023-05-24T08:20:20.399Z,13.75
2023-05-24T08:21:20.319Z,13.74
2023-05-24T08:22:20.350Z,13.53
2023-05-24T08:23:20.345Z,13.52
2023-05-24T08:24:20.288Z,13.54
2023-05-24T08:25:20.365Z,13.77
2023-05-24T08:26:20.306Z,13.74
2023-05-24T08:27:20.305Z,13.71
2023-05-24T08:28:20.320Z,13.77
2023-05-24T08:29:20.271Z,13.86
2023-05-24T08:30:20.304Z,13.97
2023-05-24T08:31:20.355Z,13.99
2023-05-24T08:32:20.274Z,14.07
2023-05-24T08:33:20.363Z,13.92
2023-05-24T08:34:20.295Z,13.90
2023-05-24T08:35:21.878Z,13.89
2023-05-24T08:36:20.308Z,13.92
2023-05-24T08:37:20.254Z,13.96
2023-05-24T08:38:20.318Z,14.12
2023-05-24T08:39:20.256Z,14.29
2023-05-24T08:40:20.234Z,14.23
2023-05-24T08:41:20.158Z,14.12
2023-05-24T08:42:20.139Z,14.10
2023-05-24T08:43:20.177Z,13.81
2023-05-24T08:44:20.129Z,13.89
2023-05-24T08:45:20.137Z,14.08
2023-05-24T08:46:20.170Z,14.22
2023-05-24T08:47:20.142Z,14.43
2023-05-24T08:48:20.156Z,14.50
2023-05-24T08:49:20.111Z,14.68
2023-05-24T08:50:20.172Z,14.73
2023-05-24T08:51:20.199Z,15.03
2023-05-24T08:52:20.143Z,14.91
2023-05-24T08:53:20.112Z,14.37
2023-05-24T08:54:20.241Z,13.95
2023-05-24T08:55:20.111Z,14.00
2023-05-24T08:56:20.084Z,14.28
2023-05-24T08:57:20.074Z,14.55
2023-05-24T08:58:20.078Z,14.91
2023-05-24T08:59:20.052Z,15.07
2023-05-24T09:00:20.118Z,14.77
2023-05-24T09:01:20.055Z,14.43
2023-05-24T09:02:20.012Z,14.11
2023-05-24T09:03:20.120Z,14.28
2023-05-24T09:04:20.020Z,14.23
2023-05-24T09:05:19.995Z,14.45
2023-05-24T09:06:20.028Z,14.73
2023-05-24T09:07:20.069Z,15.03
2023-05-24T09:08:20.047Z,15.31
2023-05-24T09:09:20.083Z,15.36
2023-05-24T09:10:19.976Z,15.61
2023-05-24T09:11:19.973Z,15.44
2023-05-24T09:12:32.402Z,15.52
2023-05-24T09:13:20.009Z,15.55
2023-05-24T09:14:19.957Z,15.73
2023-05-24T09:15:19.923Z,15.70
2023-05-24T09:16:20.003Z,15.92
2023-05-24T09:17:19.945Z,15.76
2023-05-24T09:18:19.990Z,15.65
2023-05-24T09:19:19.944Z,15.64
2023-05-24T09:20:19.925Z,15.65
2023-05-24T09:21:19.886Z,15.35
2023-05-24T09:22:19.897Z,15.04
2023-05-24T09:23:20.064Z,15.04
2023-05-24T09:24:19.869Z,15.19
2023-05-24T09:25:19.867Z,15.42
2023-05-24T09:26:19.849Z,15.44
2023-05-24T09:27:19.852Z,15.46
2023-05-24T09:28:19.849Z,15.40
2023-05-24T09:29:19.853Z,15.33
2023-05-24T09:30:19.817Z,15.61
2023-05-24T09:31:19.879Z,15.91
2023-05-24T09:32:19.848Z,16.31
2023-05-24T09:33:19.856Z,16.66
2023-05-24T09:34:19.901Z,16.90
2023-05-24T09:35:19.824Z,17.06
2023-05-24T09:36:19.906Z,17.33
2023-05-24T09:37:19.816Z,17.41
2023-05-24T09:38:19.781Z,17.12
2023-05-24T09:39:19.826Z,15.98
2023-05-24T09:40:19.780Z,15.43
2023-05-24T09:41:19.740Z,15.44
2023-05-24T09:42:19.803Z,15.75
2023-05-24T09:43:19.751Z,16.02
2023-05-24T09:44:19.752Z,16.09
2023-05-24T09:45:19.787Z,16.12
2023-05-24T09:46:19.851Z,16.35
2023-05-24T09:47:20.017Z,16.66
2023-05-24T09:48:19.745Z,16.74
2023-05-24T09:49:19.743Z,16.91
2023-05-24T09:50:19.764Z,17.06
2023-05-24T09:51:19.799Z,16.35
2023-05-24T09:52:19.720Z,15.91
2023-05-24T09:53:19.753Z,15.22
2023-05-24T09:54:19.722Z,15.33
2023-05-24T09:55:19.765Z,15.18
2023-05-24T09:56:19.806Z,15.14
2023-05-24T09:57:19.697Z,15.31
2023-05-24T09:58:19.684Z,15.44
2023-05-24T09:59:19.670Z,15.35
2023-05-24T10:00:19.636Z,15.42
2023-05-24T10:01:19.723Z,15.64
2023-05-24T10:02:19.689Z,15.72
2023-05-24T10:03:19.756Z,15.75
2023-05-24T10:04:19.772Z,16.20
2023-05-24T10:05:19.621Z,16.56
2023-05-24T10:06:19.680Z,16.76
2023-05-24T10:07:19.655Z,16.75
2023-05-24T10:08:19.617Z,16.50
2023-05-24T10:09:19.605Z,16.76
2023-05-24T10:10:19.600Z,16.79
2023-05-24T10:11:19.615Z,16.78
2023-05-24T10:12:19.605Z,16.97
2023-05-24T10:13:19.594Z,17.20
2023-05-24T10:14:19.566Z,17.39
2023-05-24T10:15:19.592Z,17.48
2023-05-24T10:16:19.629Z,17.67
2023-05-24T10:17:19.547Z,17.41
2023-05-24T10:18:19.700Z,17.52
2023-05-24T10:19:19.573Z,17.09
2023-05-24T10:20:19.635Z,16.57
2023-05-24T10:21:19.576Z,16.33
2023-05-24T10:22:19.536Z,16.32
2023-05-24T10:23:19.505Z,16.42
2023-05-24T10:24:19.546Z,16.75
2023-05-24T10:25:19.637Z,16.99
2023-05-24T10:26:19.539Z,17.11
2023-05-24T10:27:19.652Z,17.44
2023-05-24T10:28:19.486Z,17.72
2023-05-24T10:29:19.469Z,17.60
2023-05-24T10:30:19.509Z,17.20
2023-05-24T10:31:19.517Z,17.29
2023-05-24T10:32:19.512Z,17.20
2023-05-24T10:33:19.486Z,16.89
2023-05-24T10:34:19.466Z,16.39
2023-05-24T10:35:19.462Z,15.80
2023-05-24T10:36:19.501Z,15.49
2023-05-24T10:37:19.476Z,15.61
2023-05-24T10:38:19.449Z,15.76
2023-05-24T10:39:19.449Z,15.88
2023-05-24T10:40:19.440Z,15.97
2023-05-24T10:41:19.454Z,16.21
2023-05-24T10:42:19.429Z,16.35
2023-05-24T10:43:19.443Z,16.51
2023-05-24T10:44:19.405Z,16.65
2023-05-24T10:45:19.390Z,16.78
2023-05-24T10:46:19.467Z,16.79
2023-05-24T10:47:19.384Z,16.86
2023-05-24T10:48:19.417Z,16.78
2023-05-24T10:49:19.365Z,16.76
2023-05-24T10:50:19.348Z,16.76
2023-05-24T10:51:19.374Z,16.72
2023-05-24T10:52:19.341Z,16.75
2023-05-24T10:53:19.383Z,16.78
2023-05-24T10:54:19.355Z,16.86
2023-05-24T10:55:19.342Z,16.74
2023-05-24T10:56:19.350Z,16.68
2023-05-24T10:57:19.325Z,16.65
2023-05-24T10:58:19.299Z,16.71
2023-05-24T10:59:19.364Z,16.79
2023-05-24T11:00:33.284Z,16.68
2023-05-24T11:01:19.338Z,16.66
2023-05-24T11:02:19.444Z,16.68
2023-05-24T11:03:19.288Z,16.58
2023-05-24T11:04:19.295Z,16.42
2023-05-24T11:05:19.396Z,16.43
2023-05-24T11:06:19.258Z,16.31
2023-05-24T11:07:19.357Z,16.38
2023-05-24T11:08:19.383Z,16.43
2023-05-24T11:09:19.247Z,16.72
2023-05-24T11:10:19.238Z,16.84
2023-05-24T11:11:26.674Z,17.06
2023-05-24T11:12:19.347Z,17.36
2023-05-24T11:13:19.259Z,17.52
2023-05-24T11:14:19.250Z,17.71
2023-05-24T11:15:19.298Z,17.78
2023-05-24T11:16:19.227Z,18.04
2023-05-24T11:17:19.239Z,18.11
2023-05-24T11:18:19.391Z,18.34
2023-05-24T11:19:19.247Z,18.53
2023-05-24T11:20:19.321Z,18.65
2023-05-24T11:21:19.231Z,18.66
2023-05-24T11:22:19.200Z,18.49
2023-05-24T11:23:19.160Z,18.01
2023-05-24T11:24:19.181Z,17.26
2023-05-24T11:25:19.246Z,16.93
2023-05-24T11:26:19.165Z,16.83
2023-05-24T11:27:19.176Z,17.05
2023-05-24T11:28:19.344Z,16.99
2023-05-24T11:29:19.194Z,17.16
2023-05-24T11:30:19.178Z,17.41
2023-05-24T11:31:19.285Z,17.52
2023-05-24T11:32:19.370Z,17.57
2023-05-24T11:33:19.126Z,17.64
2023-05-24T11:34:19.146Z,17.80
2023-05-24T11:35:19.113Z,17.85
2023-05-24T11:36:19.077Z,17.74
2023-05-24T11:37:19.174Z,17.89
2023-05-24T11:38:19.080Z,18.01
2023-05-24T11:39:19.089Z,18.03
2023-05-24T11:40:19.061Z,17.68
2023-05-24T11:41:19.096Z,17.85
2023-05-24T11:42:19.058Z,17.83
2023-05-24T11:43:19.048Z,17.97
2023-05-24T11:44:19.035Z,18.10
2023-05-24T11:45:19.052Z,18.19
2023-05-24T11:46:19.048Z,18.23
2023-05-24T11:47:19.055Z,17.85
2023-05-24T11:48:19.016Z,17.71
2023-05-24T11:49:19.022Z,17.42
2023-05-24T11:50:19.002Z,17.04
2023-05-24T11:51:19.066Z,16.93
2023-05-24T11:52:19.043Z,16.91
2023-05-24T11:53:19.014Z,17.01
2023-05-24T11:54:19.028Z,17.09
2023-05-24T11:55:19.000Z,17.11
2023-05-24T11:56:19.010Z,17.11
2023-05-24T11:57:18.999Z,17.19
2023-05-24T11:58:19.006Z,17.22
2023-05-24T11:59:19.032Z,17.41
2023-05-24T12:00:19.025Z,17.63
2023-05-24T12:01:19.026Z,17.72
2023-05-24T12:02:19.031Z,17.97
2023-05-24T12:03:19.122Z,17.92
2023-05-24T12:04:19.024Z,17.83
2023-05-24T12:05:18.960Z,17.65
2023-05-24T12:06:18.967Z,17.72
2023-05-24T12:07:18.936Z,17.74
2023-05-24T12:08:18.909Z,17.72
2023-05-24T12:09:18.901Z,17.67
2023-05-24T12:10:20.370Z,17.67
2023-05-24T12:11:18.887Z,17.64
2023-05-24T12:12:22.410Z,17.41
2023-05-24T12:13:18.895Z,17.26
2023-05-24T12:14:18.915Z,17.27
2023-05-24T12:15:18.918Z,17.24
2023-05-24T12:16:18.933Z,17.20
2023-05-24T12:17:18.911Z,17.26
2023-05-24T12:18:18.876Z,17.24
2023-05-24T12:19:31.730Z,17.27
2023-05-24T12:20:18.947Z,17.41
2023-05-24T12:21:18.879Z,17.42
2023-05-24T12:22:18.881Z,17.42
2023-05-24T12:23:18.864Z,17.41
2023-05-24T12:24:18.883Z,17.39
2023-05-24T12:25:18.817Z,17.27
2023-05-24T12:26:18.815Z,17.41
2023-05-24T12:27:18.946Z,17.11
2023-05-24T12:28:18.836Z,17.05
2023-05-24T12:29:18.822Z,16.96
2023-05-24T12:30:18.857Z,17.08
2023-05-24T12:31:18.854Z,17.15
2023-05-24T12:32:18.787Z,17.27
2023-05-24T12:33:18.774Z,17.22
2023-05-24T12:34:18.800Z,17.39
2023-05-24T12:35:18.853Z,17.51
2023-05-24T12:36:18.776Z,17.79
2023-05-24T12:37:18.799Z,17.94
2023-05-24T12:38:18.810Z,18.00
2023-05-24T12:39:18.807Z,17.52
2023-05-24T12:40:18.733Z,17.56
2023-05-24T12:41:18.728Z,17.49
2023-05-24T12:42:18.752Z,17.63
2023-05-24T12:43:18.781Z,17.44
2023-05-24T12:44:18.722Z,17.39
2023-05-24T12:45:18.700Z,17.59
2023-05-24T12:46:18.734Z,17.63
2023-05-24T12:47:18.848Z,17.67
2023-05-24T12:48:18.744Z,17.76
2023-05-24T12:49:18.725Z,17.87
2023-05-24T12:50:18.716Z,17.94
2023-05-24T12:51:18.724Z,17.85
2023-05-24T12:52:18.702Z,18.03
2023-05-24T12:53:18.689Z,17.95
2023-05-24T12:54:18.698Z,17.85
2023-05-24T12:55:18.681Z,17.65
2023-05-24T12:56:18.675Z,17.42
2023-05-24T12:57:18.632Z,17.46
2023-05-24T12:58:18.650Z,17.41
2023-05-24T12:59:18.627Z,17.38
2023-05-24T13:00:18.622Z,17.31
2023-05-24T13:01:18.675Z,17.30